Time;durP1;ratioP1;P1;durP2;ratioP2;P2;SDS_P1;SDS_P2;PMS_P1;PMS_P2;Temp;Humidity;BMP_temperature;BMP_pressure;BME280_temperature;BME280_humidity;BME280_pressure;Samples;Min_cycle;Max_cycle;Signal;HPM_P1;HPM_P2
2023/12/18 00:02:19;;;;;;;63.25;17.90;;;;;;;-144.73;100.00;54711.47;4988699;28;20125;-73
2023/12/18 00:04:44;;;;;;;61.53;18.52;;;;;;;-144.73;100.00;54674.53;4979798;28;20030;-73
2023/12/18 00:07:10;;;;;;;69.82;21.98;;;;;;;-144.73;100.00;54727.91;4993424;28;20022;-73
2023/12/18 00:09:35;;;;;;;55.88;17.63;;;;;;;-144.73;100.00;54676.59;4976491;28;20039;-73
2023/12/18 00:12:01;;;;;;;57.00;20.42;;;;;;;-144.73;100.00;54727.91;4982500;28;20086;-73
2023/12/18 00:14:26;;;;;;;54.83;18.92;;;;;;;-144.73;100.00;54686.84;4975024;28;20069;-73
2023/12/18 00:16:51;;;;;;;53.90;18.55;;;;;;;-144.73;100.00;54695.06;4984523;28;20025;-72
2023/12/18 00:19:17;;;;;;;53.08;19.77;;;;;;;-144.73;100.00;54690.97;4981552;28;20038;-73
2023/12/18 00:21:42;;;;;;;58.45;17.80;;;;;;;-144.73;100.00;54662.22;4981489;28;20025;-73
2023/12/18 00:24:07;;;;;;;51.47;18.52;;;;;;;-144.73;100.00;54678.63;4979886;28;20034;-72
2023/12/18 00:26:33;;;;;;;64.72;18.35;;;;;;;-144.73;100.00;54645.78;4978758;28;20110;-73
2023/12/18 00:28:58;;;;;;;69.63;20.13;;;;;;;-144.73;100.00;54678.63;4990926;28;20034;-72
2023/12/18 00:31:23;;;;;;;63.65;18.58;;;;;;;-144.73;100.00;54695.06;4985189;28;20026;-73
2023/12/18 00:33:49;;;;;;;58.30;18.50;;;;;;;-144.73;100.00;54719.69;4980239;28;20030;-74
2023/12/18 00:36:14;;;;;;;63.88;18.30;;;;;;;-144.73;100.00;54703.28;4987425;28;20026;-72
2023/12/18 00:38:39;;;;;;;47.85;18.27;;;;;;;-144.73;100.00;54721.75;4972767;28;20126;-73
2023/12/18 00:41:05;;;;;;;62.28;19.80;;;;;;;-144.73;100.00;54660.16;4984317;28;20041;-73
2023/12/18 00:43:30;;;;;;;53.78;18.48;;;;;;;-144.73;100.00;54711.47;4984903;28;20038;-73
2023/12/18 00:45:56;;;;;;;52.80;19.00;;;;;;;-144.73;100.00;54674.53;4978182;28;20030;-73
2023/12/18 00:48:21;;;;;;;68.45;20.52;;;;;;;-144.73;100.00;54680.69;4974281;28;20126;-73
2023/12/18 00:50:47;;;;;;;60.83;18.90;;;;;;;-144.73;100.00;54736.13;4976761;28;20478;-72
2023/12/18 00:53:16;;;;;;;54.88;19.15;;;;;;;-144.73;100.00;54670.44;4977631;28;20043;-72
2023/12/18 00:55:42;;;;;;;62.67;20.27;;;;;;;-144.73;100.00;54682.75;4980122;28;20018;-73
2023/12/18 00:58:08;;;;;;;57.38;21.73;;;;;;;-144.73;100.00;54699.16;4983722;28;20505;-73
2023/12/18 01:00:34;;;;;;;64.05;19.83;;;;;;;-144.73;100.00;54695.06;4977822;28;20035;-72
2023/12/18 01:02:59;;;;;;;54.85;18.63;;;;;;;-144.73;100.00;54756.66;4979557;28;20509;-74
2023/12/18 01:05:24;;;;;;;63.35;19.30;;;;;;;-144.73;100.00;54678.63;4982891;28;20150;-73
2023/12/18 01:07:50;;;;;;;48.75;17.58;;;;;;;-144.73;100.00;54715.59;4975089;28;20042;-73
2023/12/18 01:10:15;;;;;;;59.63;19.65;;;;;;;-144.73;100.00;54740.22;4989443;28;20477;-73
2023/12/18 01:12:40;;;;;;;64.85;19.58;;;;;;;-144.73;100.00;54682.75;4977494;28;20250;-73
2023/12/18 01:15:06;;;;;;;65.07;20.73;;;;;;;-144.73;100.00;54707.38;4976721;28;20081;-73
2023/12/18 01:17:32;;;;;;;64.82;19.15;;;;;;;-144.73;100.00;54695.06;4974635;28;20019;-73
2023/12/18 01:19:57;;;;;;;64.10;20.88;;;;;;;-144.73;100.00;54678.63;4982175;28;20015;-72
2023/12/18 01:22:22;;;;;;;69.10;20.63;;;;;;;-144.73;100.00;54723.81;4976407;28;20031;-73
2023/12/18 01:24:48;;;;;;;61.03;18.88;;;;;;;-144.73;100.00;54771.00;4981058;28;20086;-73
2023/12/18 01:27:16;;;;;;;57.70;20.25;;;;;;;-144.73;100.00;54682.75;4974729;28;20026;-73
2023/12/18 01:29:41;;;;;;;58.63;18.63;;;;;;;-144.73;100.00;54707.38;4979987;28;20057;-73
2023/12/18 01:32:08;;;;;;;60.30;18.50;;;;;;;-144.73;100.00;54760.75;4985935;28;20030;-73
2023/12/18 01:34:34;;;;;;;67.85;19.98;;;;;;;-144.73;100.00;54682.75;4972307;28;20049;-72
2023/12/18 01:36:59;;;;;;;64.80;18.92;;;;;;;-144.73;100.00;54682.75;4979875;28;20113;-72
2023/12/18 01:39:25;;;;;;;58.70;19.75;;;;;;;-144.73;100.00;54690.97;4979294;28;20042;-73
2023/12/18 01:41:50;;;;;;;67.15;19.50;;;;;;;-144.73;100.00;54678.63;4972508;28;20110;-73
2023/12/18 01:44:15;;;;;;;61.53;21.42;;;;;;;-144.73;100.00;54670.44;4979861;28;20054;-73
2023/12/18 01:46:41;;;;;;;58.08;20.02;;;;;;;-144.73;100.00;54699.16;4983826;28;20037;-72
2023/12/18 01:49:08;;;;;;;47.28;18.75;;;;;;;-144.73;100.00;54711.47;4981090;28;20035;-73
2023/12/18 01:51:35;;;;;;;60.30;20.52;;;;;;;-144.73;100.00;54688.91;4976089;28;20030;-73
2023/12/18 01:54:02;;;;;;;63.83;18.20;;;;;;;-144.73;100.00;54699.16;4977319;28;20039;-73
2023/12/18 01:56:30;;;;;;;54.53;20.60;;;;;;;-144.73;100.00;54707.38;4982165;28;20033;-72
2023/12/18 01:58:59;;;;;;;59.42;20.33;;;;;;;-144.73;100.00;54732.00;4973098;28;20445;-72
2023/12/18 02:01:26;;;;;;;49.80;19.33;;;;;;;-144.73;100.00;54715.59;4981923;28;20030;-72
2023/12/18 02:03:52;;;;;;;63.88;21.17;;;;;;;-144.73;100.00;54682.75;4983425;28;20604;-74
2023/12/18 02:06:18;;;;;;;77.68;21.38;;;;;;;-144.73;100.00;54674.53;4979387;28;20026;-72
2023/12/18 02:08:44;;;;;;;54.58;19.73;;;;;;;-144.73;100.00;54690.97;4974664;28;20053;-72
2023/12/18 02:11:09;;;;;;;68.45;19.73;;;;;;;-144.73;100.00;54707.38;4983160;28;20078;-73
2023/12/18 02:13:35;;;;;;;67.43;21.35;;;;;;;-144.73;100.00;54707.38;4980006;28;20110;-73
2023/12/18 02:16:00;;;;;;;53.15;21.92;;;;;;;-144.73;100.00;54695.06;4986502;28;20033;-72
2023/12/18 02:18:26;;;;;;;63.72;21.98;;;;;;;-144.73;100.00;54678.63;4970798;28;20031;-73
2023/12/18 02:20:51;;;;;;;56.13;20.75;;;;;;;-144.73;100.00;54686.84;4973640;28;20030;-72
2023/12/18 02:23:17;;;;;;;62.78;20.65;;;;;;;-144.73;100.00;54693.00;4979660;28;20038;-73
2023/12/18 02:25:42;;;;;;;75.50;22.40;;;;;;;-144.73;100.00;54715.59;4981616;28;20034;-73
2023/12/18 02:28:10;;;;;;;64.20;22.85;;;;;;;-144.73;100.00;54695.06;4979775;28;20042;-73
2023/12/18 02:30:36;;;;;;;64.43;24.15;;;;;;;-144.73;100.00;54695.06;4982353;28;20030;-72
2023/12/18 02:33:01;;;;;;;83.10;25.50;;;;;;;-144.73;100.00;54744.31;4986769;28;20030;-72
2023/12/18 02:35:27;;;;;;;77.20;24.38;;;;;;;-144.73;100.00;54658.13;4977531;28;20492;-72
2023/12/18 02:37:52;;;;;;;69.10;24.85;;;;;;;-144.73;100.00;54699.16;4980081;28;20034;-72
2023/12/18 02:40:18;;;;;;;72.57;26.85;;;;;;;-144.73;100.00;54678.63;4981389;28;20088;-72
2023/12/18 02:42:43;;;;;;;71.22;27.05;;;;;;;-144.73;100.00;54721.75;4979301;28;20038;-72
2023/12/18 02:45:09;;;;;;;68.90;28.20;;;;;;;-144.73;100.00;54690.97;4972803;28;20026;-72
2023/12/18 02:47:35;;;;;;;60.35;24.33;;;;;;;-144.73;100.00;54688.91;4978687;28;20505;-72
2023/12/18 02:50:00;;;;;;;78.50;26.90;;;;;;;-144.73;100.00;54686.84;4978959;28;20015;-72
2023/12/18 02:52:26;;;;;;;73.35;25.30;;;;;;;-144.73;100.00;54715.59;4977420;28;20033;-72
2023/12/18 02:54:51;;;;;;;69.78;25.20;;;;;;;-144.73;100.00;54750.50;4980328;28;20109;-72
2023/12/18 02:57:17;;;;;;;63.40;24.05;;;;;;;-144.73;100.00;54719.69;4976154;28;20065;-72
2023/12/18 02:59:42;;;;;;;63.45;23.83;;;;;;;-144.73;100.00;54695.06;4975322;28;20045;-72
2023/12/18 03:02:08;;;;;;;60.90;24.98;;;;;;;-144.73;100.00;54695.06;4989361;28;20030;-72
2023/12/18 03:04:33;;;;;;;57.40;23.63;;;;;;;-144.73;100.00;54703.28;4979080;28;20042;-72
2023/12/18 03:06:58;;;;;;;78.57;24.77;;;;;;;-144.73;100.00;54715.59;4985728;28;20026;-72
2023/12/18 03:09:24;;;;;;;75.80;25.30;;;;;;;-144.73;100.00;54725.84;4970383;28;20125;-72
2023/12/18 03:11:49;;;;;;;72.93;23.92;;;;;;;-144.73;100.00;54732.00;4977103;28;20073;-72
2023/12/18 03:14:15;;;;;;;66.75;23.27;;;;;;;-144.73;100.00;54703.28;4979153;28;20034;-72
2023/12/18 03:16:40;;;;;;;79.28;23.00;;;;;;;-144.73;100.00;54719.69;4980869;28;20092;-72
2023/12/18 03:19:06;;;;;;;71.22;25.45;;;;;;;-144.73;100.00;54732.00;4982345;28;20100;-72
2023/12/18 03:21:32;;;;;;;76.50;25.67;;;;;;;-144.73;100.00;54703.28;4982665;28;20033;-72
2023/12/18 03:23:57;;;;;;;72.70;23.60;;;;;;;-144.73;100.00;54764.84;4987004;28;20031;-72
2023/12/18 03:26:23;;;;;;;68.15;22.83;;;;;;;-144.73;100.00;54674.53;4983476;28;20134;-72
2023/12/18 03:28:49;;;;;;;62.75;24.92;;;;;;;-144.73;100.00;54670.44;4972807;28;20097;-72
2023/12/18 03:31:14;;;;;;;75.47;26.10;;;;;;;-144.73;100.00;54711.47;4980470;28;20053;-72
2023/12/18 03:33:40;;;;;;;77.00;26.65;;;;;;;-144.73;100.00;54723.81;4973946;28;20093;-72
2023/12/18 03:36:07;;;;;;;75.30;26.17;;;;;;;-144.73;100.00;54719.69;4983613;28;20390;-72
2023/12/18 03:38:32;;;;;;;74.05;25.83;;;;;;;-144.73;100.00;54719.69;4978371;28;20054;-72
2023/12/18 03:40:58;;;;;;;67.03;25.45;;;;;;;-144.73;100.00;54723.81;4984263;28;20023;-72
2023/12/18 03:43:24;;;;;;;74.93;25.35;;;;;;;-144.73;100.00;54703.28;4979784;28;20031;-72
2023/12/18 03:45:50;;;;;;;69.43;26.77;;;;;;;-144.73;100.00;54690.97;4977983;28;20023;-72
2023/12/18 03:48:15;;;;;;;73.90;26.60;;;;;;;-144.73;100.00;54711.47;4974923;28;20122;-72
2023/12/18 03:50:44;;;;;;;68.07;26.98;;;;;;;-144.73;100.00;54682.75;4976878;28;20389;-72
2023/12/18 03:53:10;;;;;;;62.63;26.35;;;;;;;-144.73;100.00;54684.78;4988385;28;20039;-72
2023/12/18 03:55:35;;;;;;;64.00;26.33;;;;;;;-144.73;100.00;54715.59;4992156;28;20030;-72
2023/12/18 03:58:01;;;;;;;61.88;30.58;;;;;;;-144.73;100.00;54686.84;4981305;28;20035;-72
2023/12/18 04:00:27;;;;;;;66.00;29.33;;;;;;;-144.73;100.00;54707.38;4974554;28;20081;-72
2023/12/18 04:02:52;;;;;;;75.30;31.33;;;;;;;-144.73;100.00;54695.06;4973851;28;20034;-72
2023/12/18 04:05:17;;;;;;;70.15;31.02;;;;;;;-144.73;100.00;54744.31;4983035;28;20134;-72
2023/12/18 04:07:43;;;;;;;69.65;29.65;;;;;;;-144.73;100.00;54695.06;4983588;28;20085;-72
2023/12/18 04:10:09;;;;;;;85.35;29.92;;;;;;;-144.73;100.00;54711.47;4977423;28;20033;-72
2023/12/18 04:12:35;;;;;;;77.80;29.67;;;;;;;-144.73;100.00;54703.28;4992482;28;20437;-72
2023/12/18 04:15:00;;;;;;;71.20;29.40;;;;;;;-144.73;100.00;54699.16;4978539;28;20027;-72
2023/12/18 04:17:25;;;;;;;61.47;28.08;;;;;;;-144.73;100.00;54711.47;4984688;28;20037;-72
2023/12/18 04:19:51;;;;;;;66.53;30.42;;;;;;;-144.73;100.00;54654.00;4984580;28;20027;-71
2023/12/18 04:22:16;;;;;;;88.60;30.90;;;;;;;-144.73;100.00;54688.91;4978582;28;20030;-72
2023/12/18 04:24:42;;;;;;;62.22;27.77;;;;;;;-144.73;100.00;54736.13;4989279;28;20041;-72
2023/12/18 04:27:08;;;;;;;68.93;28.70;;;;;;;-144.73;100.00;54723.81;4987354;28;20117;-72
2023/12/18 04:29:33;;;;;;;72.55;29.98;;;;;;;-144.73;100.00;54713.53;4977864;28;20053;-72
2023/12/18 04:31:58;;;;;;;71.57;31.92;;;;;;;-144.73;100.00;54715.59;4976723;28;20034;-72
2023/12/18 04:34:24;;;;;;;61.95;28.70;;;;;;;-144.73;100.00;54688.91;4982517;28;20046;-72
2023/12/18 04:36:49;;;;;;;75.85;30.23;;;;;;;-144.73;100.00;54699.16;4975660;28;20038;-72
2023/12/18 04:39:15;;;;;;;77.60;32.15;;;;;;;-144.73;100.00;54682.75;4974639;28;20047;-72
2023/12/18 04:41:40;;;;;;;74.72;33.13;;;;;;;-144.73;100.00;54754.59;4979804;28;20026;-72
2023/12/18 04:44:08;;;;;;;77.55;33.95;;;;;;;-144.73;100.00;54693.00;4982974;28;20039;-72
2023/12/18 04:46:37;;;;;;;82.90;33.60;;;;;;;-144.73;100.00;54740.22;4979294;28;20188;-72
2023/12/18 04:49:04;;;;;;;79.85;34.22;;;;;;;-144.73;100.00;54690.97;4974812;28;20137;-72
2023/12/18 04:51:30;;;;;;;78.25;34.40;;;;;;;-144.73;100.00;54695.06;4981754;28;20030;-72
2023/12/18 04:53:55;;;;;;;86.85;35.10;;;;;;;-144.73;100.00;54695.06;4973627;28;20061;-72
2023/12/18 04:56:21;;;;;;;91.38;35.65;;;;;;;-144.73;100.00;54682.75;4989620;28;20027;-72
2023/12/18 04:58:46;;;;;;;76.32;34.17;;;;;;;-144.73;100.00;54723.81;4978573;28;20067;-73
2023/12/18 05:01:12;;;;;;;82.10;38.35;;;;;;;-144.73;100.00;54719.69;4976930;28;20101;-72
2023/12/18 05:03:37;;;;;;;75.97;36.28;;;;;;;-144.73;100.00;54705.31;4976534;28;20421;-72
2023/12/18 05:06:03;;;;;;;94.38;41.50;;;;;;;-144.73;100.00;54715.59;4981058;28;20068;-72
2023/12/18 05:08:28;;;;;;;74.43;38.33;;;;;;;-144.73;100.00;54715.59;4985237;28;20034;-72
2023/12/18 05:10:54;;;;;;;90.53;42.97;;;;;;;-144.73;100.00;54773.06;4982931;28;20032;-72
2023/12/18 05:13:20;;;;;;;88.47;39.38;;;;;;;-144.73;100.00;54703.28;4978993;28;20118;-72
2023/12/18 05:15:46;;;;;;;81.15;38.65;;;;;;;-144.73;100.00;54711.47;4980807;28;20114;-72
2023/12/18 05:18:12;;;;;;;98.28;41.28;;;;;;;-144.73;100.00;54699.16;4980829;28;20102;-72
2023/12/18 05:20:37;;;;;;;110.75;44.25;;;;;;;-144.73;100.00;54711.47;4983826;28;20026;-72
2023/12/18 05:23:03;;;;;;;90.30;44.08;;;;;;;-144.73;100.00;54725.84;4972594;28;20097;-72
2023/12/18 05:25:28;;;;;;;89.93;45.90;;;;;;;-144.73;100.00;54736.13;4973112;28;20031;-72
2023/12/18 05:27:54;;;;;;;99.47;49.53;;;;;;;-144.73;100.00;54662.22;4973162;28;20114;-72
2023/12/18 05:30:19;;;;;;;94.13;46.83;;;;;;;-144.73;100.00;54715.59;4986887;28;20029;-72
2023/12/18 05:32:44;;;;;;;116.90;46.83;;;;;;;-144.73;100.00;54699.16;4972979;28;20526;-72
2023/12/18 05:35:10;;;;;;;101.70;46.78;;;;;;;-144.73;100.00;54711.47;4972577;28;20543;-72
2023/12/18 05:37:35;;;;;;;98.20;49.97;;;;;;;-144.73;100.00;54690.97;4972313;28;20089;-72
2023/12/18 05:40:00;;;;;;;95.72;47.13;;;;;;;-144.73;100.00;54705.31;4974273;28;20039;-72
2023/12/18 05:42:26;;;;;;;111.07;51.83;;;;;;;-144.73;100.00;54748.44;4986039;28;20038;-72
2023/12/18 05:44:51;;;;;;;110.55;50.92;;;;;;;-144.73;100.00;54670.44;4984679;28;20023;-72
2023/12/18 05:47:16;;;;;;;102.10;49.45;;;;;;;-144.73;100.00;54736.13;4972861;28;20039;-72
2023/12/18 05:49:42;;;;;;;121.40;52.80;;;;;;;-144.73;100.00;54670.44;4973756;28;20034;-72
2023/12/18 05:52:07;;;;;;;113.35;51.17;;;;;;;-144.73;100.00;54746.38;4982079;28;20083;-72
2023/12/18 05:54:33;;;;;;;121.65;52.90;;;;;;;-144.73;100.00;54715.59;4977624;28;20035;-72
2023/12/18 05:56:58;;;;;;;106.28;49.75;;;;;;;-144.73;100.00;54744.31;4979535;28;20035;-72
2023/12/18 05:59:24;;;;;;;107.65;49.08;;;;;;;-144.73;100.00;54727.91;4980372;28;20109;-72
2023/12/18 06:01:49;;;;;;;110.82;48.75;;;;;;;-144.73;100.00;54703.28;4980533;28;20081;-72
2023/12/18 06:04:14;;;;;;;100.38;49.17;;;;;;;-144.73;100.00;54723.81;4989188;28;20043;-72
2023/12/18 06:06:40;;;;;;;108.93;51.45;;;;;;;-144.73;100.00;54744.31;4985621;28;20019;-72
2023/12/18 06:09:05;;;;;;;107.97;47.55;;;;;;;-144.73;100.00;54756.66;4972579;28;20128;-72
2023/12/18 06:11:31;;;;;;;98.00;46.03;;;;;;;-144.73;100.00;54727.91;4978844;28;20019;-72
2023/12/18 06:13:57;;;;;;;100.00;47.28;;;;;;;-144.73;100.00;54686.84;4983368;28;20034;-71
2023/12/18 06:16:23;;;;;;;106.80;47.30;;;;;;;-144.73;100.00;54711.47;4977215;28;20065;-71
2023/12/18 06:18:48;;;;;;;88.13;49.63;;;;;;;-144.73;100.00;54703.28;4984052;28;20054;-71
2023/12/18 06:21:13;;;;;;;108.25;51.05;;;;;;;-144.73;100.00;54703.28;4972519;28;20045;-71
2023/12/18 06:23:39;;;;;;;123.25;56.13;;;;;;;-144.73;100.00;54707.38;4977362;28;20023;-72
2023/12/18 06:26:04;;;;;;;92.88;48.10;;;;;;;-144.73;100.00;54715.59;4979441;28;20142;-71
2023/12/18 06:28:33;;;;;;;114.10;51.13;;;;;;;-144.73;100.00;54703.28;4982271;28;20030;-71
2023/12/18 06:30:58;;;;;;;114.50;48.70;;;;;;;-144.73;100.00;54703.28;4979823;28;20114;-71
2023/12/18 06:33:24;;;;;;;111.95;52.60;;;;;;;-144.73;100.00;54732.00;4986284;28;20150;-71
2023/12/18 06:35:49;;;;;;;108.88;50.15;;;;;;;-144.73;100.00;54715.59;4979951;28;20081;-72
2023/12/18 06:38:15;;;;;;;107.68;49.65;;;;;;;-144.73;100.00;54699.16;4979412;28;20545;-72
2023/12/18 06:40:40;;;;;;;136.25;53.17;;;;;;;-144.73;100.00;54727.91;4971016;28;20030;-72
2023/12/18 06:43:05;;;;;;;107.82;47.95;;;;;;;-144.73;100.00;54723.81;4976164;28;20066;-71
2023/12/18 06:45:31;;;;;;;103.72;51.78;;;;;;;-144.73;100.00;54705.31;4978948;28;20023;-71
2023/12/18 06:47:56;;;;;;;109.82;48.10;;;;;;;-144.73;100.00;54709.44;4982391;28;20049;-72
2023/12/18 06:50:24;;;;;;;115.47;49.22;;;;;;;-144.73;100.00;54695.06;4972229;28;20049;-72
2023/12/18 06:52:49;;;;;;;114.78;50.05;;;;;;;-144.73;100.00;54736.13;4970721;28;20058;-72
2023/12/18 06:55:15;;;;;;;134.68;56.33;;;;;;;-144.73;100.00;54690.97;4980934;28;20030;-72
2023/12/18 06:57:40;;;;;;;116.22;52.30;;;;;;;-144.73;100.00;54707.38;4984773;28;20035;-73
2023/12/18 07:00:06;;;;;;;129.25;51.85;;;;;;;-144.73;100.00;54707.38;4987463;28;20025;-72
2023/12/18 07:02:32;;;;;;;118.32;49.35;;;;;;;-144.73;100.00;54674.53;4984562;28;20126;-72
2023/12/18 07:04:57;;;;;;;125.68;52.05;;;;;;;-144.73;100.00;54711.47;4979989;28;20113;-70
2023/12/18 07:07:22;;;;;;;109.10;53.30;;;;;;;-144.73;100.00;54703.28;4983212;28;20082;-71
2023/12/18 07:09:48;;;;;;;119.85;53.63;;;;;;;-144.73;100.00;54711.47;4973678;28;20026;-71
2023/12/18 07:12:13;;;;;;;108.45;50.38;;;;;;;-144.73;100.00;54695.06;4982196;28;20053;-72
2023/12/18 07:14:42;;;;;;;112.82;50.20;;;;;;;-144.73;100.00;54693.00;4973691;28;20062;-72
2023/12/18 07:17:07;;;;;;;113.30;48.92;;;;;;;-144.73;100.00;54699.16;4982686;28;20090;-72
2023/12/18 07:19:32;;;;;;;144.38;53.20;;;;;;;-144.73;100.00;54693.00;4978958;28;20122;-72
2023/12/18 07:21:58;;;;;;;137.63;49.83;;;;;;;-144.73;100.00;54766.91;4975962;28;20513;-71
2023/12/18 07:24:23;;;;;;;131.18;50.70;;;;;;;-144.73;100.00;54723.81;4981004;28;20038;-71
2023/12/18 07:26:49;;;;;;;120.82;49.88;;;;;;;-144.73;100.00;54695.06;4973166;28;20114;-72
2023/12/18 07:29:14;;;;;;;131.00;50.92;;;;;;;-144.73;100.00;54715.59;4977207;28;20053;-72
2023/12/18 07:31:39;;;;;;;124.78;52.30;;;;;;;-144.73;100.00;54727.91;4974428;28;20390;-72
2023/12/18 07:34:05;;;;;;;140.93;55.47;;;;;;;-144.73;100.00;54682.75;4977070;28;20057;-72
2023/12/18 07:36:35;;;;;;;121.25;52.92;;;;;;;-144.73;100.00;54736.13;4983390;28;20026;-72
2023/12/18 07:39:00;;;;;;;120.00;51.22;;;;;;;-144.73;100.00;54723.81;4971935;28;20042;-71
2023/12/18 07:41:30;;;;;;;135.82;61.15;;;;;;;-144.73;100.00;54703.28;4980659;28;20018;-72
2023/12/18 07:43:55;;;;;;;128.60;56.47;;;;;;;-144.73;100.00;54732.00;4983097;28;20046;-71
2023/12/18 07:46:22;;;;;;;151.50;61.03;;;;;;;-144.73;100.00;54729.97;4979024;28;20014;-73
2023/12/18 07:48:50;;;;;;;144.65;57.13;;;;;;;-144.73;100.00;54715.59;4978118;28;20097;-71
2023/12/18 07:51:16;;;;;;;152.55;57.30;;;;;;;-144.73;100.00;54660.16;4985744;28;20034;-70
2023/12/18 07:53:41;;;;;;;124.38;53.10;;;;;;;-144.73;100.00;54701.22;4980576;28;20030;-71
2023/12/18 07:56:07;;;;;;;143.00;59.78;;;;;;;-144.73;100.00;54719.69;4978204;28;20035;-70
2023/12/18 07:58:33;;;;;;;134.30;56.50;;;;;;;-144.73;100.00;54695.06;4975828;28;20034;-71
2023/12/18 08:00:58;;;;;;;153.32;62.33;;;;;;;-144.73;100.00;54760.75;4983398;28;20019;-71
2023/12/18 08:03:24;;;;;;;135.75;56.83;;;;;;;-144.73;100.00;54744.31;4974148;28;20037;-71
2023/12/18 08:05:49;;;;;;;143.45;62.55;;;;;;;-144.73;100.00;54715.59;4978124;28;20023;-72
2023/12/18 08:08:15;;;;;;;143.85;60.10;;;;;;;-144.73;100.00;54723.81;4976752;28;20553;-70
2023/12/18 08:10:41;;;;;;;145.82;56.33;;;;;;;-144.73;100.00;54711.47;4981691;28;20057;-69
2023/12/18 08:13:06;;;;;;;141.15;60.65;;;;;;;-144.73;100.00;54732.00;4977375;28;20031;-69
2023/12/18 08:15:31;;;;;;;143.40;58.30;;;;;;;-144.73;100.00;54723.81;4974723;28;20118;-69
2023/12/18 08:17:57;;;;;;;163.32;60.95;;;;;;;-144.73;100.00;54721.75;4976532;28;20038;-70
2023/12/18 08:20:22;;;;;;;148.20;57.80;;;;;;;-144.73;100.00;54744.31;4977247;28;20085;-68
2023/12/18 08:22:48;;;;;;;152.35;59.45;;;;;;;-144.73;100.00;54732.00;4985341;28;20613;-69
2023/12/18 08:25:13;;;;;;;138.45;57.33;;;;;;;-144.73;100.00;54768.97;4978184;28;20022;-70
2023/12/18 08:27:40;;;;;;;137.98;56.42;;;;;;;-144.73;100.00;54713.53;4982209;28;20039;-69
2023/12/18 08:30:08;;;;;;;156.30;65.57;;;;;;;-144.73;100.00;54740.22;4985362;28;20034;-69
2023/12/18 08:32:34;;;;;;;143.02;60.10;;;;;;;-144.73;100.00;54736.13;4978838;28;20036;-69
2023/12/18 08:35:00;;;;;;;147.05;57.53;;;;;;;-144.73;100.00;54736.13;4981817;28;20031;-71
2023/12/18 08:37:29;;;;;;;173.77;67.00;;;;;;;-144.73;100.00;54660.16;4982679;28;20034;-70
2023/12/18 08:39:56;;;;;;;140.98;62.70;;;;;;;-144.73;100.00;54723.81;4985485;28;20037;-70
2023/12/18 08:42:22;;;;;;;147.68;60.65;;;;;;;-144.73;100.00;54736.13;4978379;28;20113;-69
2023/12/18 08:44:48;;;;;;;162.77;61.15;;;;;;;-144.73;100.00;54703.28;4981615;28;20038;-70
2023/12/18 08:47:13;;;;;;;144.07;58.42;;;;;;;-144.73;100.00;54715.59;4978570;28;20026;-69
2023/12/18 08:49:39;;;;;;;151.02;62.63;;;;;;;-144.73;100.00;54715.59;4978594;28;20045;-69
2023/12/18 08:52:05;;;;;;;152.48;57.67;;;;;;;-144.73;100.00;54695.06;4977702;28;20044;-69
2023/12/18 08:54:30;;;;;;;151.65;61.05;;;;;;;-144.73;100.00;54715.59;4977269;28;20453;-69
2023/12/18 08:56:55;;;;;;;165.65;61.25;;;;;;;-144.73;100.00;54736.13;4987993;28;20038;-69
2023/12/18 08:59:21;;;;;;;160.88;66.20;;;;;;;-144.73;100.00;54717.66;4977476;28;20043;-69
2023/12/18 09:01:46;;;;;;;159.20;62.58;;;;;;;-144.73;100.00;54727.91;4984109;28;20395;-70
2023/12/18 09:04:12;;;;;;;168.40;64.78;;;;;;;-144.73;100.00;54690.97;4974951;28;20050;-70
2023/12/18 09:06:38;;;;;;;150.02;63.10;;;;;;;-144.73;100.00;54699.16;4980331;28;20027;-70
2023/12/18 09:09:05;;;;;;;160.02;64.45;;;;;;;-144.73;100.00;54684.78;4978128;28;20049;-71
2023/12/18 09:11:33;;;;;;;187.23;64.40;;;;;;;-144.73;100.00;54711.47;4983957;28;20030;-69
2023/12/18 09:14:00;;;;;;;163.15;64.75;;;;;;;-144.73;100.00;54738.16;4982532;28;20035;-70
2023/12/18 09:16:25;;;;;;;146.23;62.35;;;;;;;-144.73;100.00;54711.47;4977067;28;20022;-70
2023/12/18 09:18:51;;;;;;;161.52;62.60;;;;;;;-144.73;100.00;54695.06;4980082;28;20125;-69
2023/12/18 09:21:17;;;;;;;158.70;62.35;;;;;;;-144.73;100.00;54723.81;4978896;28;20118;-70
2023/12/18 09:23:44;;;;;;;144.10;58.60;;;;;;;-144.73;100.00;54748.44;4979842;28;20049;-70
2023/12/18 09:26:10;;;;;;;150.63;66.72;;;;;;;-144.73;100.00;54740.22;4980057;28;20027;-69
2023/12/18 09:28:35;;;;;;;149.57;67.20;;;;;;;-144.73;100.00;54719.69;4981521;28;20039;-69
2023/12/18 09:31:01;;;;;;;143.18;57.45;;;;;;;-144.73;100.00;54734.06;4974474;28;20034;-70
2023/12/18 09:33:26;;;;;;;135.23;56.63;;;;;;;-144.73;100.00;54695.06;4980252;28;20042;-70
2023/12/18 09:35:52;;;;;;;135.18;58.53;;;;;;;-144.73;100.00;54703.28;4972678;28;20077;-70
2023/12/18 09:38:17;;;;;;;176.02;59.53;;;;;;;-144.73;100.00;54715.59;4976240;28;20125;-69
2023/12/18 09:40:46;;;;;;;146.70;57.33;;;;;;;-144.73;100.00;54682.75;4982254;28;20034;-69
2023/12/18 09:43:19;;;;;;;146.80;57.42;;;;;;;-144.73;100.00;54732.00;4981603;28;20081;-69
2023/12/18 09:45:48;;;;;;;138.38;54.90;;;;;;;-144.73;100.00;54768.97;4971369;28;20037;-69
2023/12/18 09:48:16;;;;;;;166.88;54.92;;;;;;;-144.73;100.00;54686.84;4972352;28;20031;-69
2023/12/18 09:50:43;;;;;;;160.95;59.55;;;;;;;-144.73;100.00;54711.47;4974839;28;20018;-69
2023/12/18 09:53:13;;;;;;;134.23;53.50;;;;;;;-144.73;100.00;54719.69;4977923;28;20038;-69
2023/12/18 09:55:39;;;;;;;147.68;55.80;;;;;;;-144.73;100.00;54693.00;4970105;28;20029;-70
2023/12/18 09:58:06;;;;;;;128.20;53.65;;;;;;;-144.73;100.00;54727.91;4968262;28;20047;-69
2023/12/18 10:00:32;;;;;;;133.27;51.22;;;;;;;-144.73;100.00;54670.44;4974219;28;20042;-69
2023/12/18 10:02:59;;;;;;;136.18;51.92;;;;;;;-144.73;100.00;54727.91;4976371;28;20041;-69
2023/12/18 10:05:25;;;;;;;133.90;52.55;;;;;;;-144.73;100.00;54711.47;4973590;28;20088;-69
2023/12/18 10:07:51;;;;;;;131.13;55.00;;;;;;;-144.73;100.00;54711.47;4975236;28;20518;-69
2023/12/18 10:10:17;;;;;;;126.15;50.83;;;;;;;-144.73;100.00;54734.06;4973517;28;20030;-69
2023/12/18 10:12:42;;;;;;;137.43;50.55;;;;;;;-144.73;100.00;54723.81;4974608;28;20169;-69
2023/12/18 10:15:09;;;;;;;129.00;50.10;;;;;;;-144.73;100.00;54740.22;4975321;28;20109;-69
2023/12/18 10:17:38;;;;;;;123.93;45.95;;;;;;;-144.73;100.00;54732.00;4971214;28;20018;-69
2023/12/18 10:20:04;;;;;;;118.80;48.72;;;;;;;-144.73;100.00;54740.22;4975026;28;20018;-69
2023/12/18 10:22:29;;;;;;;131.75;50.92;;;;;;;-144.73;100.00;54723.81;4974149;28;20053;-69
2023/12/18 10:24:58;;;;;;;117.63;48.05;;;;;;;-144.73;100.00;54732.00;4978836;28;20591;-69
2023/12/18 10:27:24;;;;;;;132.82;52.30;;;;;;;-144.73;100.00;54723.81;4991999;28;20029;-69
2023/12/18 10:29:50;;;;;;;123.13;49.47;;;;;;;-144.73;100.00;54736.13;4975324;28;20044;-70
2023/12/18 10:32:16;;;;;;;124.82;47.30;;;;;;;-144.73;100.00;54744.31;4975033;28;20072;-70
2023/12/18 10:34:43;;;;;;;129.80;47.20;;;;;;;-144.73;100.00;54719.69;4970846;28;20031;-70
2023/12/18 10:37:10;;;;;;;129.73;48.00;;;;;;;-144.73;100.00;54727.91;4981227;28;20023;-70
2023/12/18 10:39:41;;;;;;;98.82;45.28;;;;;;;-144.73;100.00;54719.69;4971208;28;20035;-70
2023/12/18 10:42:15;;;;;;;131.68;49.55;;;;;;;-144.73;100.00;54727.91;4983344;28;20023;-70
2023/12/18 10:44:41;;;;;;;116.55;45.95;;;;;;;-144.73;100.00;54740.22;4972792;28;20030;-71